createdAt,value
2018-09-26T00:00:03.490Z,10.30
2018-09-26T00:02:35.160Z,10.20
2018-09-26T00:05:03.825Z,10.20
2018-09-26T00:07:32.218Z,10.20
2018-09-26T00:10:00.567Z,10.10
2018-09-26T00:12:28.965Z,10.20
2018-09-26T00:14:57.771Z,10.10
2018-09-26T00:17:26.217Z,10.00
2018-09-26T00:19:54.711Z,10.00
2018-09-26T00:22:23.102Z,10.00
2018-09-26T00:24:51.479Z,10.00
2018-09-26T00:27:20.070Z,10.00
2018-09-26T00:29:48.448Z,10.00
2018-09-26T00:32:16.970Z,9.90
2018-09-26T00:34:45.642Z,9.90
2018-09-26T00:37:14.261Z,9.90
2018-09-26T00:39:42.778Z,9.90
2018-09-26T00:42:11.120Z,9.80
2018-09-26T00:44:39.497Z,9.80
2018-09-26T00:47:08.001Z,9.80
2018-09-26T00:49:36.750Z,9.70
2018-09-26T00:52:05.295Z,9.70
2018-09-26T00:54:33.679Z,9.70
2018-09-26T00:57:02.158Z,9.60
2018-09-26T00:59:30.655Z,9.60
2018-09-26T01:01:59.133Z,9.60
2018-09-26T01:04:27.607Z,9.60
2018-09-26T01:06:56.288Z,9.50
2018-09-26T01:09:24.715Z,9.40
2018-09-26T01:11:53.110Z,9.40
2018-09-26T01:14:21.526Z,9.40
2018-09-26T01:16:49.987Z,9.40
2018-09-26T01:19:18.502Z,9.40
2018-09-26T01:21:47.179Z,9.30
2018-09-26T01:24:15.586Z,9.30
2018-09-26T01:26:44.024Z,9.30
2018-09-26T01:29:12.554Z,9.20
2018-09-26T01:31:41.048Z,9.30
2018-09-26T01:34:09.533Z,9.20
2018-09-26T01:36:38.035Z,9.20
2018-09-26T01:39:08.232Z,9.20
2018-09-26T01:41:36.667Z,9.20
2018-09-26T01:44:05.294Z,9.20
2018-09-26T01:46:33.673Z,9.10
2018-09-26T01:49:02.056Z,9.10
2018-09-26T01:51:30.483Z,9.00
2018-09-26T01:53:58.947Z,9.00
2018-09-26T01:56:27.369Z,9.00
2018-09-26T01:58:55.758Z,9.00
2018-09-26T02:01:24.258Z,9.00
2018-09-26T02:03:52.623Z,9.00
2018-09-26T02:06:21.024Z,9.00
2018-09-26T02:08:49.460Z,8.90
2018-09-26T02:11:17.865Z,8.90
2018-09-26T02:13:46.458Z,8.90
2018-09-26T02:16:14.881Z,8.80
2018-09-26T02:18:43.264Z,8.80
2018-09-26T02:21:11.783Z,8.80
2018-09-26T02:23:40.217Z,8.80
2018-09-26T02:26:08.602Z,8.80
2018-09-26T02:28:36.973Z,8.70
2018-09-26T02:31:05.503Z,8.70
2018-09-26T02:33:33.870Z,8.70
2018-09-26T02:36:02.335Z,8.60
2018-09-26T02:38:30.719Z,8.60
2018-09-26T02:40:59.126Z,8.50
2018-09-26T02:43:27.550Z,8.50
2018-09-26T02:45:55.943Z,8.50
2018-09-26T02:48:29.694Z,8.50
2018-09-26T02:50:58.082Z,8.40
2018-09-26T02:53:26.470Z,8.40
2018-09-26T02:55:54.895Z,8.40
2018-09-26T02:58:23.234Z,8.40
2018-09-26T03:00:51.615Z,8.40
2018-09-26T03:03:19.984Z,8.30
2018-09-26T03:05:48.454Z,8.30
2018-09-26T03:08:16.822Z,8.30
2018-09-26T03:10:45.297Z,8.20
2018-09-26T03:13:13.688Z,8.20
2018-09-26T03:15:42.074Z,8.20
2018-09-26T03:18:10.424Z,8.20
2018-09-26T03:20:38.773Z,8.10
2018-09-26T03:23:08.521Z,8.10
2018-09-26T03:25:36.985Z,8.10
2018-09-26T03:28:05.492Z,8.10
2018-09-26T03:30:34.818Z,8.00
2018-09-26T03:33:03.202Z,8.00
2018-09-26T03:35:31.742Z,8.00
2018-09-26T03:38:00.222Z,7.90
2018-09-26T03:40:28.604Z,7.90
2018-09-26T03:42:56.998Z,7.90
2018-09-26T03:45:25.386Z,7.90
2018-09-26T03:47:53.802Z,7.90
2018-09-26T03:50:22.228Z,7.90
2018-09-26T03:52:50.607Z,7.80
2018-09-26T03:55:18.990Z,7.80
2018-09-26T03:57:47.374Z,7.80
2018-09-26T04:00:15.760Z,7.70
2018-09-26T04:02:44.177Z,7.70
2018-09-26T04:05:12.708Z,7.70
2018-09-26T04:07:41.298Z,7.70
2018-09-26T04:10:09.863Z,7.70
2018-09-26T04:12:38.314Z,7.70
2018-09-26T04:15:06.725Z,7.70
2018-09-26T04:17:35.126Z,7.70
2018-09-26T04:20:03.567Z,7.70
2018-09-26T04:22:31.962Z,7.60
2018-09-26T04:25:00.558Z,7.60
2018-09-26T04:27:29.104Z,7.60
2018-09-26T04:29:57.361Z,7.60
2018-09-26T04:32:26.068Z,7.60
2018-09-26T04:34:54.545Z,7.50
2018-09-26T04:37:22.933Z,7.50
2018-09-26T04:39:51.333Z,7.50
2018-09-26T04:42:19.839Z,7.50
2018-09-26T04:44:48.309Z,7.50
2018-09-26T04:47:16.700Z,7.50
2018-09-26T04:49:45.053Z,7.40
2018-09-26T04:52:13.510Z,7.40
2018-09-26T04:54:42.138Z,7.40
2018-09-26T04:57:10.661Z,7.40
2018-09-26T04:59:39.065Z,7.30
2018-09-26T05:02:07.499Z,7.30
2018-09-26T05:04:35.894Z,7.30
2018-09-26T05:07:04.371Z,7.30
2018-09-26T05:09:32.823Z,7.30
2018-09-26T05:12:01.682Z,7.30
2018-09-26T05:14:30.038Z,7.20
2018-09-26T05:16:58.649Z,7.20
2018-09-26T05:19:27.071Z,7.20
2018-09-26T05:21:55.575Z,7.20
2018-09-26T05:24:24.034Z,7.20
2018-09-26T05:26:52.495Z,7.20
2018-09-26T05:29:20.903Z,7.20
2018-09-26T05:31:49.425Z,7.20
2018-09-26T05:34:17.829Z,7.20
2018-09-26T05:36:46.567Z,7.20
2018-09-26T05:39:14.999Z,7.30
2018-09-26T05:41:43.657Z,7.30
2018-09-26T05:44:12.083Z,7.30
2018-09-26T05:46:40.576Z,7.30
2018-09-26T05:49:08.944Z,7.30
2018-09-26T05:51:37.427Z,7.20
2018-09-26T05:54:05.883Z,7.20
2018-09-26T05:56:34.408Z,7.30
2018-09-26T05:59:02.779Z,7.30
2018-09-26T06:01:31.329Z,7.30
2018-09-26T06:03:59.802Z,7.30
2018-09-26T06:06:28.251Z,7.30
2018-09-26T06:08:56.655Z,7.30
2018-09-26T06:11:25.171Z,7.30
2018-09-26T06:13:53.686Z,7.30
2018-09-26T06:16:22.151Z,7.30
2018-09-26T06:18:50.758Z,7.40
2018-09-26T06:21:19.107Z,7.40
2018-09-26T06:23:47.475Z,7.50
2018-09-26T06:26:15.932Z,7.50
2018-09-26T06:28:44.351Z,7.60
2018-09-26T06:31:12.706Z,7.70
2018-09-26T06:33:41.075Z,7.80
2018-09-26T06:36:09.484Z,7.80
2018-09-26T06:38:38.042Z,7.90
2018-09-26T06:41:06.425Z,8.00
2018-09-26T06:43:34.878Z,8.10
2018-09-26T06:46:03.493Z,8.10
2018-09-26T06:48:31.869Z,8.20
2018-09-26T06:51:00.323Z,8.20
2018-09-26T06:53:28.946Z,8.30
2018-09-26T06:55:57.489Z,8.40
2018-09-26T06:58:26.188Z,8.40
2018-09-26T07:00:54.647Z,8.50
2018-09-26T07:03:23.089Z,8.60
2018-09-26T07:05:51.621Z,8.70
2018-09-26T07:08:20.061Z,8.70
2018-09-26T07:10:48.598Z,8.80
2018-09-26T07:13:17.095Z,8.90
2018-09-26T07:15:45.777Z,8.90
2018-09-26T07:18:14.279Z,9.00
2018-09-26T07:20:42.856Z,9.00
2018-09-26T07:23:11.321Z,9.10
2018-09-26T07:25:39.763Z,9.10
2018-09-26T07:28:08.244Z,9.20
2018-09-26T07:30:36.883Z,9.30
2018-09-26T07:33:05.398Z,9.40
2018-09-26T07:35:33.923Z,9.50
2018-09-26T07:38:02.562Z,9.50
2018-09-26T07:40:31.146Z,9.60
2018-09-26T07:42:59.674Z,9.60
2018-09-26T07:45:28.201Z,9.70
2018-09-26T07:47:56.692Z,9.80
2018-09-26T07:50:25.058Z,9.80
2018-09-26T07:52:53.469Z,9.90
2018-09-26T07:55:21.869Z,10.00
2018-09-26T07:57:50.371Z,10.10
2018-09-26T08:00:18.739Z,10.10
2018-09-26T08:02:47.123Z,10.20
2018-09-26T08:05:15.573Z,10.30
2018-09-26T08:07:44.022Z,10.40
2018-09-26T08:10:12.435Z,10.40
2018-09-26T08:12:41.059Z,10.50
2018-09-26T08:15:09.602Z,10.60
2018-09-26T08:17:37.988Z,10.70
2018-09-26T08:20:06.703Z,10.90
2018-09-26T08:22:35.198Z,10.90
2018-09-26T08:25:03.883Z,11.10
2018-09-26T08:27:32.402Z,11.20
2018-09-26T08:30:00.966Z,11.30
2018-09-26T08:32:29.354Z,11.40
2018-09-26T08:34:57.770Z,11.60
2018-09-26T08:37:26.216Z,11.70
2018-09-26T08:39:54.634Z,11.80
2018-09-26T08:42:23.167Z,11.90
2018-09-26T08:44:51.572Z,12.00
2018-09-26T08:47:19.951Z,12.10
2018-09-26T08:49:48.516Z,12.20
2018-09-26T08:52:16.883Z,12.30
2018-09-26T08:54:45.546Z,12.40
2018-09-26T08:57:14.446Z,12.60
2018-09-26T08:59:42.834Z,12.80
2018-09-26T09:02:11.290Z,12.90
2018-09-26T09:04:39.671Z,13.00
2018-09-26T09:07:08.177Z,13.10
2018-09-26T09:09:36.689Z,13.20
2018-09-26T09:12:05.100Z,13.20
2018-09-26T09:14:33.635Z,13.30
2018-09-26T09:17:01.905Z,13.40
2018-09-26T09:19:30.237Z,13.50
2018-09-26T09:21:58.633Z,13.60
2018-09-26T09:24:27.129Z,13.60
2018-09-26T09:26:55.633Z,13.70
2018-09-26T09:29:23.985Z,13.80
2018-09-26T09:31:52.459Z,14.00
2018-09-26T09:34:20.921Z,14.10
2018-09-26T09:36:49.563Z,14.20
2018-09-26T09:39:17.907Z,14.30
2018-09-26T09:41:46.322Z,14.40
2018-09-26T09:44:14.752Z,14.50
2018-09-26T09:46:43.174Z,14.60
2018-09-26T09:49:11.550Z,14.70
2018-09-26T09:51:40.155Z,14.80
2018-09-26T09:54:08.489Z,15.00
2018-09-26T09:56:37.124Z,15.10
2018-09-26T09:59:05.655Z,15.20
2018-09-26T10:01:34.142Z,15.40
2018-09-26T10:04:02.609Z,15.50
2018-09-26T10:06:31.211Z,15.80
2018-09-26T10:08:59.691Z,16.00
2018-09-26T10:11:28.380Z,16.20
2018-09-26T10:13:56.799Z,16.30
2018-09-26T10:16:25.329Z,16.40
2018-09-26T10:18:53.690Z,16.50
2018-09-26T10:21:22.098Z,16.60
2018-09-26T10:23:50.620Z,16.80
2018-09-26T10:26:18.937Z,17.10
2018-09-26T10:28:47.261Z,17.30
2018-09-26T10:31:15.581Z,17.50
2018-09-26T10:33:43.950Z,17.60
2018-09-26T10:36:13.419Z,17.80
2018-09-26T10:38:41.945Z,18.00
2018-09-26T10:41:10.359Z,18.10
2018-09-26T10:43:38.993Z,18.30
2018-09-26T10:46:07.377Z,18.30
2018-09-26T10:48:35.752Z,18.40
2018-09-26T10:51:04.169Z,18.50
2018-09-26T10:53:32.639Z,18.60
2018-09-26T10:56:01.001Z,18.80
2018-09-26T10:58:29.479Z,19.00
2018-09-26T11:00:57.957Z,19.10
2018-09-26T11:03:26.319Z,19.30
2018-09-26T11:05:54.670Z,19.40
2018-09-26T11:08:23.086Z,19.50
2018-09-26T11:10:51.481Z,19.50
2018-09-26T11:13:19.918Z,19.50
2018-09-26T11:15:48.291Z,19.50
2018-09-26T11:18:16.633Z,19.60
2018-09-26T11:20:51.719Z,19.70
2018-09-26T11:23:20.201Z,19.80
2018-09-26T11:25:48.631Z,20.00
2018-09-26T11:28:17.013Z,20.20
2018-09-26T11:30:45.358Z,20.40
2018-09-26T11:33:13.701Z,20.60
2018-09-26T11:35:42.121Z,20.80
2018-09-26T11:38:10.573Z,21.00
2018-09-26T11:40:39.007Z,21.10
2018-09-26T11:43:07.491Z,21.10
2018-09-26T11:45:35.887Z,21.20
2018-09-26T11:48:04.317Z,21.30
2018-09-26T11:50:32.709Z,21.40
2018-09-26T11:53:01.249Z,21.40
2018-09-26T11:55:29.596Z,21.40
2018-09-26T11:57:57.959Z,21.40
2018-09-26T12:00:26.328Z,21.60
2018-09-26T12:02:54.869Z,21.70
2018-09-26T12:05:23.255Z,21.90
2018-09-26T12:07:51.641Z,22.10
2018-09-26T12:10:20.122Z,22.10
2018-09-26T12:12:48.451Z,22.20
2018-09-26T12:15:16.825Z,22.30
2018-09-26T12:17:45.203Z,22.40
2018-09-26T12:20:13.601Z,22.50
2018-09-26T12:22:42.225Z,22.70
2018-09-26T12:25:10.543Z,22.90
2018-09-26T12:27:38.891Z,23.00
2018-09-26T12:30:08.214Z,23.20
2018-09-26T12:32:36.951Z,23.30
2018-09-26T12:35:05.330Z,23.30
2018-09-26T12:37:33.649Z,23.30
2018-09-26T12:40:02.166Z,23.30
2018-09-26T12:42:30.787Z,23.40
2018-09-26T12:44:59.221Z,23.60
2018-09-26T12:47:27.651Z,23.80
2018-09-26T12:49:56.087Z,24.00
2018-09-26T12:52:24.494Z,24.10
2018-09-26T12:54:52.862Z,24.20
2018-09-26T12:57:21.260Z,24.20
2018-09-26T12:59:50.025Z,24.20
2018-09-26T13:02:18.460Z,24.20
2018-09-26T13:04:46.784Z,24.30
2018-09-26T13:07:15.372Z,24.30
2018-09-26T13:09:43.902Z,24.20
2018-09-26T13:12:12.290Z,24.00
2018-09-26T13:14:40.647Z,24.00
2018-09-26T13:17:09.155Z,24.00
2018-09-26T13:19:37.470Z,24.00
2018-09-26T13:22:05.846Z,24.10
2018-09-26T13:24:34.304Z,24.10
2018-09-26T13:27:02.821Z,24.10
2018-09-26T13:29:31.278Z,24.00
2018-09-26T13:31:59.721Z,24.00
2018-09-26T13:34:28.109Z,23.90
2018-09-26T13:36:56.510Z,23.80
2018-09-26T13:39:25.108Z,23.60
2018-09-26T13:41:53.473Z,23.60
2018-09-26T13:44:21.947Z,23.60
2018-09-26T13:46:50.383Z,23.60
2018-09-26T13:49:18.745Z,23.60
2018-09-26T13:51:47.113Z,23.60
2018-09-26T13:54:15.485Z,23.60
2018-09-26T13:56:43.910Z,23.60
2018-09-26T13:59:12.393Z,23.60
2018-09-26T14:01:41.101Z,23.50
2018-09-26T14:04:09.404Z,23.50
2018-09-26T14:06:38.050Z,23.50
2018-09-26T14:09:06.957Z,23.40
2018-09-26T14:11:35.335Z,23.40
2018-09-26T14:14:03.737Z,23.30
2018-09-26T14:16:32.170Z,23.30
2018-09-26T14:19:00.590Z,23.30
2018-09-26T14:21:28.991Z,23.20
2018-09-26T14:23:57.363Z,23.20
2018-09-26T14:26:26.080Z,23.10
2018-09-26T14:28:54.387Z,23.10
2018-09-26T14:31:22.857Z,23.00
2018-09-26T14:33:51.379Z,22.90
2018-09-26T14:36:19.692Z,22.80
2018-09-26T14:38:48.061Z,22.80
2018-09-26T14:41:16.481Z,22.70
2018-09-26T14:43:44.830Z,22.60
2018-09-26T14:46:13.239Z,22.50
2018-09-26T14:48:41.689Z,22.30
2018-09-26T14:51:10.057Z,22.30
2018-09-26T14:53:38.593Z,22.20
2018-09-26T14:56:07.086Z,22.00
2018-09-26T14:58:35.537Z,22.00
2018-09-26T15:01:03.854Z,21.90
2018-09-26T15:03:32.402Z,21.80
2018-09-26T15:06:00.783Z,21.80
2018-09-26T15:08:29.255Z,21.70
2018-09-26T15:10:57.697Z,21.60
2018-09-26T15:13:26.236Z,21.50
2018-09-26T15:15:54.722Z,21.40
2018-09-26T15:18:23.194Z,21.40
2018-09-26T15:20:51.510Z,21.30
2018-09-26T15:23:19.901Z,21.20
2018-09-26T15:25:48.294Z,21.20
2018-09-26T15:28:17.469Z,21.10
2018-09-26T15:30:45.713Z,21.10
2018-09-26T15:33:14.390Z,21.00
2018-09-26T15:35:42.817Z,20.90
2018-09-26T15:38:11.343Z,20.90
2018-09-26T15:40:39.817Z,20.80
2018-09-26T15:43:08.278Z,20.70
2018-09-26T15:45:36.903Z,20.70
2018-09-26T15:48:05.322Z,20.70
2018-09-26T15:50:33.758Z,20.60
2018-09-26T15:53:02.245Z,20.60
2018-09-26T15:55:30.898Z,20.50
2018-09-26T15:57:59.161Z,20.50
2018-09-26T16:00:27.518Z,20.40
2018-09-26T16:02:56.067Z,20.40
2018-09-26T16:05:24.390Z,20.30
2018-09-26T16:07:52.862Z,20.30
2018-09-26T16:10:21.531Z,20.20
2018-09-26T16:12:49.933Z,20.20
2018-09-26T16:15:18.448Z,20.20
2018-09-26T16:17:46.755Z,20.10
2018-09-26T16:20:15.179Z,20.10
2018-09-26T16:22:43.533Z,20.00
2018-09-26T16:25:11.917Z,20.00
2018-09-26T16:27:40.276Z,20.00
2018-09-26T16:30:09.014Z,19.90
2018-09-26T16:32:37.656Z,19.90
2018-09-26T16:35:06.211Z,19.90
2018-09-26T16:37:34.678Z,19.80
2018-09-26T16:40:03.277Z,19.80
2018-09-26T16:42:31.926Z,19.70
2018-09-26T16:45:00.427Z,19.70
2018-09-26T16:47:28.970Z,19.60
2018-09-26T16:49:57.684Z,19.50
2018-09-26T16:52:26.184Z,19.50
2018-09-26T16:54:54.520Z,19.50
2018-09-26T16:57:23.008Z,19.40
2018-09-26T16:59:51.476Z,19.40
2018-09-26T17:02:19.975Z,19.30
2018-09-26T17:04:48.362Z,19.20
2018-09-26T17:07:16.795Z,19.10
2018-09-26T17:09:45.236Z,19.00
2018-09-26T17:12:13.841Z,18.90
2018-09-26T17:14:42.229Z,18.80
2018-09-26T17:17:10.823Z,18.70
2018-09-26T17:19:39.452Z,18.70
2018-09-26T17:22:07.938Z,18.60
2018-09-26T17:24:36.296Z,18.60
2018-09-26T17:27:04.751Z,18.50
2018-09-26T17:29:33.258Z,18.30
2018-09-26T17:32:01.664Z,18.20
2018-09-26T17:34:30.104Z,18.10
2018-09-26T17:36:58.575Z,18.10
2018-09-26T17:39:27.060Z,18.00
2018-09-26T17:41:55.571Z,18.00
2018-09-26T17:44:24.223Z,17.90
2018-09-26T17:46:52.823Z,17.80
2018-09-26T17:49:21.300Z,17.70
2018-09-26T17:51:49.791Z,17.70
2018-09-26T17:54:18.270Z,17.60
2018-09-26T17:56:46.569Z,17.50
2018-09-26T17:59:15.136Z,17.50
2018-09-26T18:01:43.692Z,17.40
2018-09-26T18:04:12.399Z,17.40
2018-09-26T18:06:41.008Z,17.40
2018-09-26T18:09:10.816Z,17.30
2018-09-26T18:11:39.290Z,17.20
2018-09-26T18:14:07.926Z,17.20
2018-09-26T18:16:36.880Z,17.20
2018-09-26T18:19:05.711Z,17.10
2018-09-26T18:21:34.133Z,17.00
2018-09-26T18:24:02.616Z,17.00
2018-09-26T18:26:31.097Z,16.90
2018-09-26T18:28:59.655Z,16.80
2018-09-26T18:31:28.050Z,16.80
2018-09-26T18:33:56.603Z,16.70
2018-09-26T18:36:25.246Z,16.60
2018-09-26T18:38:53.773Z,16.50
2018-09-26T18:41:22.141Z,16.50
2018-09-26T18:43:50.625Z,16.50
2018-09-26T18:46:19.228Z,16.40
2018-09-26T18:48:47.642Z,16.40
2018-09-26T18:51:15.988Z,16.30
2018-09-26T18:53:44.470Z,16.30
2018-09-26T18:56:13.298Z,16.30
2018-09-26T18:58:41.950Z,16.20
2018-09-26T19:01:10.321Z,16.10
2018-09-26T19:03:38.787Z,16.10
2018-09-26T19:06:07.197Z,16.10
2018-09-26T19:08:35.928Z,16.00
2018-09-26T19:11:04.947Z,16.00
2018-09-26T19:13:33.454Z,15.90
2018-09-26T19:16:01.984Z,15.90
2018-09-26T19:18:30.508Z,15.80
2018-09-26T19:20:59.042Z,15.80
2018-09-26T19:23:27.620Z,15.80
2018-09-26T19:25:56.098Z,15.70
2018-09-26T19:28:24.617Z,15.70
2018-09-26T19:30:53.161Z,15.70
2018-09-26T19:33:21.625Z,15.50
2018-09-26T19:35:50.142Z,15.50
2018-09-26T19:38:18.657Z,15.50
2018-09-26T19:40:47.258Z,15.40
2018-09-26T19:43:16.733Z,15.40
2018-09-26T19:45:45.392Z,15.30
2018-09-26T19:48:14.006Z,15.30
2018-09-26T19:50:42.544Z,15.30
2018-09-26T19:53:10.976Z,15.20
2018-09-26T19:55:39.515Z,15.20
2018-09-26T19:58:07.915Z,15.20
2018-09-26T20:00:36.430Z,15.10
2018-09-26T20:03:04.874Z,15.10
2018-09-26T20:05:34.552Z,15.00
2018-09-26T20:08:03.113Z,15.00
2018-09-26T20:10:31.519Z,14.90
2018-09-26T20:13:00.157Z,15.00
2018-09-26T20:15:28.509Z,14.90
2018-09-26T20:17:57.040Z,14.90
2018-09-26T20:20:25.436Z,14.90
2018-09-26T20:22:53.933Z,14.80
2018-09-26T20:25:22.296Z,14.80
2018-09-26T20:27:50.776Z,14.70
2018-09-26T20:30:19.259Z,14.70
2018-09-26T20:32:47.705Z,14.70
2018-09-26T20:35:16.281Z,14.60
2018-09-26T20:37:44.729Z,14.60
2018-09-26T20:40:13.215Z,14.60
2018-09-26T20:42:41.577Z,14.50
2018-09-26T20:45:10.079Z,14.50
2018-09-26T20:47:38.429Z,14.50
2018-09-26T20:50:07.032Z,14.40
2018-09-26T20:52:35.481Z,14.40
2018-09-26T20:55:03.937Z,14.30
2018-09-26T20:57:32.394Z,14.30
2018-09-26T21:00:00.818Z,14.30
2018-09-26T21:02:29.266Z,14.20
2018-09-26T21:04:57.791Z,14.20
2018-09-26T21:07:26.348Z,14.20
2018-09-26T21:09:54.767Z,14.10
2018-09-26T21:12:23.288Z,14.10
2018-09-26T21:14:51.747Z,14.10
2018-09-26T21:17:20.808Z,14.10
2018-09-26T21:19:49.405Z,14.10
2018-09-26T21:22:17.807Z,14.00
2018-09-26T21:24:46.259Z,14.00
2018-09-26T21:27:14.790Z,14.00
2018-09-26T21:29:43.147Z,13.90
2018-09-26T21:32:11.791Z,13.90
2018-09-26T21:34:40.153Z,13.90
2018-09-26T21:37:08.516Z,13.80
2018-09-26T21:39:36.892Z,13.80
2018-09-26T21:42:05.358Z,13.80
2018-09-26T21:44:33.705Z,13.70
2018-09-26T21:47:02.079Z,13.70
2018-09-26T21:49:30.405Z,13.70
2018-09-26T21:51:58.930Z,13.60
2018-09-26T21:54:27.272Z,13.60
2018-09-26T21:56:55.783Z,13.70
2018-09-26T21:59:24.195Z,13.70
2018-09-26T22:01:52.684Z,13.70
2018-09-26T22:04:21.131Z,13.70
2018-09-26T22:06:49.625Z,13.70
2018-09-26T22:09:18.125Z,13.70
2018-09-26T22:11:46.619Z,13.60
2018-09-26T22:14:15.166Z,13.60
2018-09-26T22:16:44.123Z,13.50
2018-09-26T22:19:12.751Z,13.50
2018-09-26T22:21:41.529Z,13.40
2018-09-26T22:24:10.053Z,13.40
2018-09-26T22:26:39.071Z,13.30
2018-09-26T22:29:07.673Z,13.30
2018-09-26T22:31:36.171Z,13.30
2018-09-26T22:34:06.069Z,13.30
2018-09-26T22:36:34.598Z,13.20
2018-09-26T22:39:03.771Z,13.20
2018-09-26T22:41:32.220Z,13.20
2018-09-26T22:44:00.714Z,13.20
2018-09-26T22:46:29.132Z,13.10
2018-09-26T22:48:57.589Z,13.10
2018-09-26T22:51:26.094Z,13.00
2018-09-26T22:53:54.670Z,13.00
2018-09-26T22:56:23.285Z,13.00
2018-09-26T22:58:51.874Z,13.00
2018-09-26T23:01:20.550Z,13.00
2018-09-26T23:03:48.997Z,13.00
2018-09-26T23:06:17.650Z,12.90
2018-09-26T23:08:46.225Z,12.90
2018-09-26T23:11:14.775Z,12.90
2018-09-26T23:13:43.211Z,12.90
2018-09-26T23:16:11.770Z,12.80
2018-09-26T23:18:40.413Z,12.80
2018-09-26T23:21:08.866Z,12.80
2018-09-26T23:23:37.397Z,12.80
2018-09-26T23:26:06.071Z,12.80
2018-09-26T23:28:34.507Z,12.70
2018-09-26T23:31:03.089Z,12.60
2018-09-26T23:33:31.539Z,12.60
2018-09-26T23:36:00.224Z,12.60
2018-09-26T23:38:28.681Z,12.50
2018-09-26T23:40:57.165Z,12.50
2018-09-26T23:43:25.598Z,12.40
2018-09-26T23:45:54.050Z,12.40
2018-09-26T23:48:22.491Z,12.40
2018-09-26T23:50:50.985Z,12.30
2018-09-26T23:53:19.405Z,12.30
2018-09-26T23:55:47.935Z,12.30
2018-09-26T23:58:16.371Z,12.30
